Accueil
METAR-TAF:

METAR-TAF

Aéroports :

Saragosse, Espagne

Aéroport de Saragosse

latitude: 41-40N, longitude: 001-01W, altitude: 263 m

Observation

Le bulletin a été fait il y a 16 minutes, à 19:00 UTC
Vent 10 kt de ouest/nord-ouest
Température 9°C
Humidité 61%
Pression 1000 hPa
Visibilité 10 km ou plus
Nuages épars à une hauteur de 6500 ft
Nuages épars à une hauteur de 7500 ft

METAR: LEZG 111900Z 30010KT 9999 SCT065 SCT075 09/02 Q1000

Heure: 20:16 (19:16 UTC)

Prévision

Le bulletin a été fait il y a 2 heures et 16 minutes, à 17:00 UTC
Prévision valable du 11 à 18 UTC au 12 à 18 UTC
Vent 12 kt de ouest
Visibilité 10 km ou plus
Nuages épars à une hauteur de 3500 ft

TAF: LEZG 111700Z 1118/1218 27012KT 9999 SCT035 TX10/1212Z TN02/1206Z

Observations et prévisions météorologiques de plus de 4000 aéroports (messages METAR et TAF).

Les stations disponibles sont représentées par des disques jaunes et rouges sur la carte.

Passer la souris dessus pour voir le nom de la station.

Cliquer dessus pour voir les observations et prévisions météorologiques.

Pour changer de carte: cliquez sur les boutons verts avec une croix noire pour zoomer, sur le bouton vert avec un tiret pour effectuer un zoom arrière, ou sur les flèches vertes pour les cartes adjacentes.


METAR-TAF: